Skip Navigation

Christman Field Latest Observations

Switch to metric unitsOther observation timesWeekly graphs

Date Time
MST
Temp
°F
RH
%
DewPt
°F
Wind
mph
Dir
°
Gust
mph
Dir
°
Press
in Hg
Solar
W/m^2
Prec
in
2017-10-19 05:50 34.8 61.7 22.9 1.7 93.3 2.3 89.5 24.857 0.2 0.00
2017-10-19 05:45 34.3 61.4 22.4 3.0 89.6 4.4 83.3 24.858 0.1 0.00
2017-10-19 05:40 33.5 64.9 22.9 2.2 99.6 3.2 99.6 24.873 0.1 0.00
2017-10-19 05:35 33.9 63.7 22.9 2.8 98.3 3.7 90.2 24.862 0.1 0.00
2017-10-19 05:30 34.2 63.0 23.0 2.5 79.8 3.5 79.8 24.852 0.1 0.00
2017-10-19 05:25 34.4 63.9 23.5 1.1 79.72 1.9 79.72 24.861 0.1 0.00
2017-10-19 05:20 34.1 63.5 23.0 0.0 79.8 0.1 79.8 24.848 0.0 0.00
2017-10-19 05:15 34.2 63.6 23.1 0.2 95 1.0 98.1 24.829 0.1 0.00
2017-10-19 05:10 34.7 62.7 23.3 0.3 98.1 1.2 98.1 24.834 0.1 0.00
2017-10-19 05:05 37.8 56.7 23.8 0.1 87.1 0.7 87.2 24.834 0.1 0.00
2017-10-19 05:00 38.8 48.6 21.1 0.6 87 1.2 82 24.826 0.1 0.00
2017-10-19 04:55 37.3 53.0 21.7 1.2 81.7 1.8 83.2 24.765 0.1 0.00
2017-10-19 04:50 37.2 56.0 23.0 1.4 83.4 1.9 85.7 24.753 0.1 0.00
2017-10-19 04:45 38.0 53.0 22.4 2.8 85.7 4.2 89.9 24.800 0.1 0.00
2017-10-19 04:40 37.4 53.5 22.0 4.4 87.5 5.0 89.2 24.871 0.1 0.00
2017-10-19 04:35 37.2 54.9 22.5 3.8 89.5 5.0 90 24.881 0.1 0.00
2017-10-19 04:30 35.6 56.0 21.5 4.5 90.3 5.2 94.2 24.874 0.1 0.00
2017-10-19 04:25 34.1 64.8 23.4 4.3 91.7 4.9 98 24.864 0.1 0.00
2017-10-19 04:20 34.6 63.2 23.3 4.0 96.2 4.4 93.1 24.870 0.1 0.00
2017-10-19 04:15 34.9 62.6 23.4 4.2 79.36 5.0 91.9 24.865 0.1 0.00
2017-10-19 04:10 35.1 61.6 23.3 4.4 91.3 4.9 91.1 24.874 0.1 0.00
2017-10-19 04:05 35.7 59.3 22.9 1.2 90.7 3.9 90.8 24.844 0.1 0.00
2017-10-19 04:00 35.2 58.5 22.1 0.0 322 0.0 322 24.795 0.1 0.00
2017-10-19 03:55 35.5 58.8 22.5 1.4 322 2.8 322.7 24.797 0.0 0.00
2017-10-19 03:50 34.8 58.1 21.5 1.2 322.6 2.3 322.2 24.837 0.1 0.00
2017-10-19 03:45 36.0 58.9 23.0 0.0 319.7 0.0 319.7 24.813 0.1 0.00
2017-10-19 03:40 35.7 52.8 20.2 0.5 319.7 1.6 319.7 24.846 0.1 0.00
2017-10-19 03:35 35.5 59.1 22.6 0.8 319.7 1.5 319.7 24.825 0.1 0.00
2017-10-19 03:30 35.5 56.0 21.3 1.8 319.7 2.2 319.7 24.819 0.1 0.00
2017-10-19 03:25 34.8 58.5 21.7 1.6 321.9 3.8 322.1 24.854 0.1 0.00